Time;durP1;ratioP1;P1;durP2;ratioP2;P2;SDS_P1;SDS_P2;PMS_P1;PMS_P2;Temp;Humidity;BMP_temperature;BMP_pressure;BME280_temperature;BME280_humidity;BME280_pressure;Samples;Min_cycle;Max_cycle;Signal;HPM_P1;HPM_P2
2023/12/17 00:01:01;;;;;;;11.52;6.22;;;12.10;85.10;;;;;;5034528;28;20514;-66
2023/12/17 00:03:27;;;;;;;11.55;6.22;;;12.20;85.10;;;;;;5053785;28;20024;-66
2023/12/17 00:05:53;;;;;;;9.82;5.07;;;12.20;85.10;;;;;;5051468;28;20374;-66
2023/12/17 00:08:21;;;;;;;9.75;5.45;;;12.10;85.00;;;;;;5052775;28;20084;-66
2023/12/17 00:10:47;;;;;;;9.07;4.90;;;12.10;85.00;;;;;;5053456;28;20029;-66
2023/12/17 00:13:13;;;;;;;9.32;5.35;;;12.10;85.00;;;;;;5051921;28;20078;-66
2023/12/17 00:15:40;;;;;;;10.57;5.22;;;12.10;84.90;;;;;;5052190;28;20025;-66
2023/12/17 00:18:06;;;;;;;9.25;4.82;;;12.10;84.90;;;;;;5052645;28;20109;-66
2023/12/17 00:20:32;;;;;;;10.88;5.25;;;12.10;85.10;;;;;;5051551;28;20129;-66
2023/12/17 00:22:58;;;;;;;9.35;4.85;;;12.10;84.90;;;;;;5052909;28;20137;-66
2023/12/17 00:25:24;;;;;;;9.68;5.05;;;12.10;84.90;;;;;;5050660;28;20102;-66
2023/12/17 00:27:50;;;;;;;10.32;5.13;;;12.10;84.90;;;;;;5035193;28;20487;-66
2023/12/17 00:30:15;;;;;;;11.65;5.15;;;12.10;84.90;;;;;;5052429;28;20032;-66
2023/12/17 00:32:41;;;;;;;8.63;4.60;;;12.10;84.90;;;;;;5051841;28;20112;-66
2023/12/17 00:35:07;;;;;;;9.82;4.97;;;12.10;84.80;;;;;;5051945;28;20368;-66
2023/12/17 00:37:33;;;;;;;9.93;4.85;;;12.10;84.80;;;;;;5044631;28;20244;-66
2023/12/17 00:39:59;;;;;;;8.82;4.88;;;12.10;84.80;;;;;;5052891;28;20029;-66
2023/12/17 00:42:24;;;;;;;9.90;4.75;;;12.10;84.70;;;;;;5052562;28;20032;-66
2023/12/17 00:44:50;;;;;;;8.80;4.72;;;12.10;84.60;;;;;;5052657;28;20021;-66
2023/12/17 00:47:16;;;;;;;8.32;4.18;;;12.10;84.50;;;;;;5049886;28;20467;-66
2023/12/17 00:49:42;;;;;;;8.40;4.35;;;12.20;84.40;;;;;;5051183;28;20487;-66
2023/12/17 00:52:07;;;;;;;8.82;4.65;;;12.10;84.30;;;;;;5052654;28;20104;-66
2023/12/17 00:54:33;;;;;;;10.15;5.18;;;12.20;84.30;;;;;;5052474;28;20060;-66
2023/12/17 00:56:59;;;;;;;9.10;4.53;;;12.10;84.20;;;;;;5051745;28;20057;-66
2023/12/17 00:59:25;;;;;;;9.73;5.40;;;12.10;84.20;;;;;;5052291;28;20446;-66
2023/12/17 01:01:51;;;;;;;8.73;4.85;;;12.10;84.20;;;;;;5052778;28;20043;-66
2023/12/17 01:04:17;;;;;;;8.93;4.32;;;12.10;84.20;;;;;;5053115;28;20025;-66
2023/12/17 01:06:43;;;;;;;9.10;4.72;;;12.10;84.20;;;;;;5051764;28;20098;-66
2023/12/17 01:09:10;;;;;;;9.50;5.18;;;12.10;84.20;;;;;;5052685;28;20049;-66
2023/12/17 01:11:36;;;;;;;8.77;4.30;;;12.10;84.10;;;;;;5050962;28;20410;-66
2023/12/17 01:14:02;;;;;;;9.30;4.22;;;12.10;84.10;;;;;;5053137;28;20017;-66
2023/12/17 01:16:29;;;;;;;10.10;4.80;;;12.10;84.00;;;;;;5051817;28;20417;-66
2023/12/17 01:18:55;;;;;;;8.90;4.63;;;12.10;83.90;;;;;;5048799;28;20052;-66
2023/12/17 01:21:20;;;;;;;8.75;4.70;;;12.10;83.90;;;;;;5051306;28;20484;-66
2023/12/17 01:23:46;;;;;;;9.15;4.70;;;12.10;83.90;;;;;;5052943;28;20460;-66
2023/12/17 01:26:20;;;;;;;8.90;4.90;;;12.10;83.90;;;;;;5051664;28;20420;-66
2023/12/17 01:28:47;;;;;;;11.38;4.97;;;12.10;83.70;;;;;;5034587;28;20073;-66
2023/12/17 01:31:13;;;;;;;8.98;4.47;;;12.10;83.80;;;;;;5051581;28;20516;-66
2023/12/17 01:33:39;;;;;;;9.30;4.82;;;12.10;83.70;;;;;;5052866;28;20033;-66
2023/12/17 01:36:05;;;;;;;8.98;4.90;;;12.10;83.70;;;;;;5061999;28;20029;-66
2023/12/17 01:38:31;;;;;;;10.05;4.82;;;12.10;83.70;;;;;;5050877;28;20029;-66
2023/12/17 01:40:57;;;;;;;9.32;4.80;;;12.10;83.70;;;;;;5052727;28;20074;-66
2023/12/17 01:43:23;;;;;;;10.82;4.65;;;12.10;83.70;;;;;;5051524;28;20365;-66
2023/12/17 01:45:49;;;;;;;9.10;4.50;;;12.10;83.60;;;;;;5051652;28;20025;-66
2023/12/17 01:48:15;;;;;;;9.13;4.90;;;12.10;83.50;;;;;;5051683;28;20440;-66
2023/12/17 01:50:41;;;;;;;8.48;4.50;;;12.20;83.50;;;;;;5051967;28;20052;-66
2023/12/17 01:53:08;;;;;;;9.38;4.70;;;12.20;83.50;;;;;;5051758;28;20036;-66
2023/12/17 01:55:34;;;;;;;8.15;3.97;;;12.20;83.40;;;;;;5052591;28;20102;-66
2023/12/17 01:58:02;;;;;;;8.40;4.28;;;12.20;83.40;;;;;;5051501;28;20029;-66
2023/12/17 02:00:29;;;;;;;11.27;4.45;;;12.20;83.30;;;;;;5037083;28;20111;-66
2023/12/17 02:02:54;;;;;;;8.30;4.38;;;12.20;83.30;;;;;;5054105;28;20021;-66
2023/12/17 02:05:20;;;;;;;9.27;3.90;;;12.20;83.20;;;;;;5055085;28;20094;-66
2023/12/17 02:07:47;;;;;;;8.15;4.20;;;12.10;83.20;;;;;;5054186;28;20386;-66
2023/12/17 02:10:13;;;;;;;7.50;3.85;;;12.20;83.20;;;;;;5052709;28;20025;-66
2023/12/17 02:12:39;;;;;;;7.93;3.97;;;12.10;83.20;;;;;;5052967;28;20441;-66
2023/12/17 02:15:06;;;;;;;8.68;4.03;;;12.20;83.10;;;;;;5055042;28;20488;-66
2023/12/17 02:17:32;;;;;;;9.45;4.13;;;12.20;83.10;;;;;;5054498;28;20033;-66
2023/12/17 02:19:58;;;;;;;7.80;3.80;;;12.10;83.70;;;;;;5055607;28;20029;-66
2023/12/17 02:22:25;;;;;;;10.90;4.13;;;12.20;83.00;;;;;;5056290;28;20111;-66
2023/12/17 02:24:51;;;;;;;8.55;4.10;;;12.10;82.90;;;;;;5054277;28;20033;-66
2023/12/17 02:27:25;;;;;;;7.70;4.03;;;12.20;83.00;;;;;;5056628;28;20025;-66
2023/12/17 02:29:51;;;;;;;10.20;3.92;;;12.10;82.80;;;;;;5054929;28;20053;-66
2023/12/17 02:32:18;;;;;;;8.18;3.90;;;12.10;82.80;;;;;;5055591;28;20341;-66
2023/12/17 02:34:44;;;;;;;8.20;3.80;;;12.10;82.80;;;;;;5053712;28;20108;-66
2023/12/17 02:37:10;;;;;;;8.50;4.20;;;12.20;82.80;;;;;;5055301;28;20061;-66
2023/12/17 02:39:36;;;;;;;8.20;3.80;;;12.10;82.60;;;;;;5057354;28;20457;-65
2023/12/17 02:42:01;;;;;;;10.30;3.97;;;12.10;82.60;;;;;;5056380;28;20047;-66
2023/12/17 02:44:27;;;;;;;9.07;4.35;;;12.20;82.50;;;;;;5056927;28;20104;-66
2023/12/17 02:46:54;;;;;;;9.45;4.13;;;12.20;82.40;;;;;;5056375;28;20361;-66
2023/12/17 02:49:20;;;;;;;8.52;4.50;;;12.20;82.40;;;;;;5038556;28;20025;-65
2023/12/17 02:51:46;;;;;;;10.32;4.15;;;12.20;82.40;;;;;;5034464;28;20365;-66
2023/12/17 02:54:11;;;;;;;9.25;4.03;;;12.20;82.30;;;;;;5055766;28;20013;-66
2023/12/17 02:56:41;;;;;;;8.85;4.15;;;12.20;82.30;;;;;;5054869;28;20407;-66
2023/12/17 02:59:08;;;;;;;9.68;4.50;;;12.20;82.30;;;;;;5055160;28;20032;-66
2023/12/17 03:01:34;;;;;;;12.40;5.20;;;12.20;82.20;;;;;;5052723;28;20369;-66
2023/12/17 03:04:01;;;;;;;10.88;5.43;;;12.20;82.20;;;;;;5056139;28;20033;-66
2023/12/17 03:06:27;;;;;;;9.90;5.10;;;12.20;82.20;;;;;;5056519;28;20108;-66
2023/12/17 03:08:53;;;;;;;9.80;5.50;;;12.20;82.30;;;;;;5055620;28;20163;-65
2023/12/17 03:11:18;;;;;;;13.43;5.80;;;12.20;82.30;;;;;;5056705;28;20021;-66
2023/12/17 03:13:45;;;;;;;8.85;4.78;;;12.10;82.20;;;;;;5053193;28;20025;-66
2023/12/17 03:16:10;;;;;;;11.00;5.10;;;12.10;82.20;;;;;;5055979;28;20020;-66
2023/12/17 03:18:36;;;;;;;10.90;5.25;;;12.20;82.20;;;;;;5055339;28;20029;-66
2023/12/17 03:21:07;;;;;;;11.18;6.00;;;12.20;82.20;;;;;;5054933;28;20071;-66
2023/12/17 03:23:34;;;;;;;12.82;5.93;;;12.20;82.20;;;;;;5054007;28;20056;-66
2023/12/17 03:26:00;;;;;;;9.40;5.65;;;12.20;82.20;;;;;;5055835;28;20033;-66
2023/12/17 03:28:26;;;;;;;12.52;5.85;;;12.20;82.20;;;;;;5058157;28;20029;-66
2023/12/17 03:30:52;;;;;;;10.10;5.55;;;12.20;82.90;;;;;;5055468;28;20041;-66
2023/12/17 03:33:17;;;;;;;9.65;5.45;;;12.10;82.20;;;;;;5054082;28;20080;-66
2023/12/17 03:35:43;;;;;;;12.63;5.97;;;12.10;82.20;;;;;;5054619;28;20056;-66
2023/12/17 03:38:09;;;;;;;11.50;5.47;;;12.10;82.30;;;;;;5055666;28;20461;-66
2023/12/17 03:40:35;;;;;;;12.35;5.50;;;12.10;82.30;;;;;;5053783;28;20397;-66
2023/12/17 03:43:01;;;;;;;11.52;5.47;;;12.10;82.30;;;;;;5052369;28;20109;-66
2023/12/17 03:45:26;;;;;;;10.35;5.05;;;12.10;82.30;;;;;;5054723;28;20017;-66
2023/12/17 03:47:52;;;;;;;11.07;5.38;;;12.20;82.40;;;;;;5053519;28;20056;-66
2023/12/17 03:50:19;;;;;;;9.90;4.80;;;12.20;82.30;;;;;;5056561;28;20358;-66
2023/12/17 03:52:46;;;;;;;13.02;6.07;;;12.10;82.20;;;;;;5054292;28;20033;-66
2023/12/17 03:55:13;;;;;;;9.27;4.43;;;12.10;82.20;;;;;;5054177;28;20017;-66
2023/12/17 03:57:39;;;;;;;12.05;4.90;;;12.10;82.20;;;;;;5055199;28;20032;-66
2023/12/17 04:00:06;;;;;;;13.27;5.50;;;12.10;82.20;;;;;;5054181;28;20033;-66
2023/12/17 04:02:32;;;;;;;11.00;4.55;;;12.10;82.20;;;;;;5055121;28;20033;-66
2023/12/17 04:04:58;;;;;;;9.70;4.95;;;12.10;82.10;;;;;;5052116;28;20025;-66
2023/12/17 04:07:26;;;;;;;10.20;4.43;;;12.20;82.10;;;;;;5053626;28;20035;-66
2023/12/17 04:09:56;;;;;;;12.75;4.70;;;12.10;82.00;;;;;;5053327;28;20025;-66
2023/12/17 04:12:21;;;;;;;10.13;4.00;;;12.10;82.00;;;;;;5052055;28;20029;-66
2023/12/17 04:14:47;;;;;;;10.88;4.25;;;12.10;81.90;;;;;;5053761;28;20362;-66
2023/12/17 04:17:13;;;;;;;9.77;4.20;;;12.10;81.90;;;;;;5053295;28;20121;-66
2023/12/17 04:19:39;;;;;;;8.25;3.40;;;12.10;81.90;;;;;;5052486;28;20032;-65
2023/12/17 04:22:04;;;;;;;7.22;3.45;;;12.10;81.90;;;;;;5054490;28;20396;-66
2023/12/17 04:24:30;;;;;;;8.02;3.60;;;12.10;81.90;;;;;;5056702;28;20075;-66
2023/12/17 04:26:56;;;;;;;9.02;4.10;;;12.10;81.90;;;;;;5055940;28;20334;-65
2023/12/17 04:29:21;;;;;;;8.38;4.20;;;12.10;81.90;;;;;;5052300;28;20421;-66
2023/12/17 04:31:47;;;;;;;8.70;3.97;;;12.10;82.00;;;;;;5055913;28;20037;-66
2023/12/17 04:34:13;;;;;;;9.52;3.97;;;12.10;82.00;;;;;;5050104;28;20035;-66
2023/12/17 04:36:40;;;;;;;10.13;4.47;;;12.10;82.10;;;;;;5052198;28;20030;-66
2023/12/17 04:39:06;;;;;;;9.88;4.93;;;12.00;82.00;;;;;;5042781;28;20470;-66
2023/12/17 04:41:33;;;;;;;9.30;4.57;;;12.10;82.20;;;;;;5041835;28;20032;-66
2023/12/17 04:43:59;;;;;;;9.68;4.82;;;12.10;82.20;;;;;;5019993;28;20469;-66
2023/12/17 04:46:28;;;;;;;9.50;5.25;;;12.10;82.30;;;;;;5034923;28;20454;-66
2023/12/17 04:48:54;;;;;;;8.70;4.80;;;12.10;82.30;;;;;;5035223;28;20037;-66
2023/12/17 04:51:21;;;;;;;9.80;5.30;;;12.10;82.30;;;;;;5035941;28;20037;-66
2023/12/17 04:53:47;;;;;;;9.80;5.40;;;12.10;82.40;;;;;;5037592;28;20022;-66
2023/12/17 04:56:13;;;;;;;8.00;4.45;;;12.00;82.40;;;;;;5044188;28;20454;-66
2023/12/17 04:58:39;;;;;;;9.85;5.22;;;12.00;82.40;;;;;;5038501;28;20037;-66
2023/12/17 05:01:04;;;;;;;11.25;5.25;;;12.00;82.50;;;;;;5039518;28;20021;-66
2023/12/17 05:03:31;;;;;;;11.43;5.15;;;12.00;82.50;;;;;;5020888;28;20374;-66
2023/12/17 05:05:57;;;;;;;11.50;5.47;;;12.00;82.50;;;;;;5033865;28;20033;-66
2023/12/17 05:08:23;;;;;;;11.32;5.75;;;12.00;82.50;;;;;;5040878;28;20033;-66
2023/12/17 05:10:48;;;;;;;11.20;5.90;;;12.00;82.50;;;;;;5038844;28;20021;-66
2023/12/17 05:13:14;;;;;;;11.68;6.07;;;12.00;82.50;;;;;;5037217;28;20029;-66
2023/12/17 05:15:40;;;;;;;13.25;6.93;;;12.00;82.60;;;;;;5052087;28;20439;-66
2023/12/17 05:18:06;;;;;;;10.07;5.93;;;12.00;82.60;;;;;;5033216;28;20017;-66
2023/12/17 05:20:32;;;;;;;11.52;6.40;;;12.00;82.60;;;;;;5038793;28;20523;-66
2023/12/17 05:22:57;;;;;;;16.50;7.68;;;12.00;82.60;;;;;;5037641;28;20056;-66
2023/12/17 05:25:23;;;;;;;12.68;7.10;;;12.00;82.60;;;;;;5042784;28;20370;-66
2023/12/17 05:27:49;;;;;;;13.02;7.82;;;12.00;82.70;;;;;;5043205;28;20088;-66
2023/12/17 05:30:15;;;;;;;14.60;8.60;;;12.00;82.70;;;;;;5034574;28;20438;-66
2023/12/17 05:32:40;;;;;;;13.82;7.70;;;12.00;82.80;;;;;;5035248;28;20046;-66
2023/12/17 05:35:07;;;;;;;14.02;8.30;;;12.00;82.80;;;;;;5040854;28;20516;-66
2023/12/17 05:37:32;;;;;;;15.05;8.15;;;12.00;82.90;;;;;;5036163;28;20057;-66
2023/12/17 05:39:58;;;;;;;15.05;8.40;;;12.00;82.90;;;;;;5025256;28;20083;-66
2023/12/17 05:42:24;;;;;;;16.10;9.15;;;12.00;83.00;;;;;;5037025;28;20030;-66
2023/12/17 05:44:50;;;;;;;15.88;8.85;;;12.00;83.00;;;;;;5037496;28;20404;-65
2023/12/17 05:47:17;;;;;;;15.60;9.88;;;12.00;83.00;;;;;;5037031;28;20028;-66
2023/12/17 05:49:42;;;;;;;15.32;9.77;;;12.00;83.00;;;;;;5046352;28;20116;-66
2023/12/17 05:52:08;;;;;;;16.88;9.63;;;12.00;83.00;;;;;;5021195;28;20129;-66
2023/12/17 05:54:34;;;;;;;15.90;9.85;;;12.00;82.90;;;;;;5043565;28;20024;-66
2023/12/17 05:57:00;;;;;;;17.17;10.40;;;12.00;82.90;;;;;;5039577;28;20108;-66
2023/12/17 05:59:26;;;;;;;17.92;11.02;;;12.00;82.80;;;;;;5041104;28;20098;-66
2023/12/17 06:01:53;;;;;;;17.48;10.18;;;12.00;82.80;;;;;;5043106;28;20116;-66
2023/12/17 06:04:19;;;;;;;18.42;10.32;;;12.00;82.70;;;;;;5038193;28;20378;-66
2023/12/17 06:06:46;;;;;;;19.52;11.82;;;12.00;82.70;;;;;;5049072;28;20045;-65
2023/12/17 06:09:13;;;;;;;19.25;12.07;;;12.00;82.60;;;;;;5040993;28;20017;-65
2023/12/17 06:11:38;;;;;;;20.17;12.18;;;12.00;82.70;;;;;;5042929;28;20036;-65
2023/12/17 06:14:04;;;;;;;22.27;12.38;;;12.00;82.60;;;;;;5056616;28;20060;-66
2023/12/17 06:16:30;;;;;;;20.05;11.77;;;12.00;82.60;;;;;;5039225;28;20355;-65
2023/12/17 06:18:56;;;;;;;20.67;11.60;;;11.90;82.60;;;;;;5044192;28;20075;-66
2023/12/17 06:21:26;;;;;;;19.23;11.68;;;12.00;82.80;;;;;;5050915;28;20029;-66
2023/12/17 06:23:57;;;;;;;18.80;10.85;;;12.00;82.70;;;;;;5034028;28;20017;-65
2023/12/17 06:26:26;;;;;;;16.88;10.88;;;11.90;82.60;;;;;;5029142;28;20037;-66
2023/12/17 06:28:52;;;;;;;20.77;11.38;;;11.90;82.60;;;;;;5037760;28;20021;-66
2023/12/17 06:31:18;;;;;;;17.25;10.43;;;12.00;82.70;;;;;;5040852;28;20049;-66
2023/12/17 06:33:44;;;;;;;17.77;10.85;;;11.90;82.60;;;;;;5036691;28;20116;-65
2023/12/17 06:36:10;;;;;;;17.85;10.32;;;11.90;82.60;;;;;;5036139;28;20021;-66
2023/12/17 06:38:37;;;;;;;17.23;10.88;;;12.00;82.60;;;;;;5060118;28;20044;-66
2023/12/17 06:41:03;;;;;;;19.40;10.32;;;11.90;82.50;;;;;;5056286;28;20041;-66
2023/12/17 06:43:29;;;;;;;17.00;10.30;;;11.90;82.50;;;;;;5053532;28;20559;-65
2023/12/17 06:45:55;;;;;;;17.63;10.93;;;11.90;82.50;;;;;;5053337;28;20112;-66
2023/12/17 06:48:20;;;;;;;18.48;11.63;;;11.90;82.50;;;;;;5053630;28;20083;-66
2023/12/17 06:50:46;;;;;;;17.95;11.00;;;11.90;82.60;;;;;;5054488;28;20029;-65
2023/12/17 06:53:17;;;;;;;23.05;11.40;;;11.90;82.60;;;;;;5049593;28;20067;-66
2023/12/17 06:55:43;;;;;;;18.67;10.55;;;11.90;82.50;;;;;;5052118;28;20025;-66
2023/12/17 06:58:09;;;;;;;15.50;10.23;;;11.90;82.50;;;;;;5053498;28;20020;-66
2023/12/17 07:00:35;;;;;;;17.30;10.57;;;11.90;82.50;;;;;;5052771;28;20029;-66
2023/12/17 07:03:01;;;;;;;16.77;9.80;;;12.00;82.50;;;;;;5054566;28;20489;-66
2023/12/17 07:05:27;;;;;;;17.02;10.05;;;11.90;82.40;;;;;;5053801;28;20032;-66
2023/12/17 07:07:53;;;;;;;15.65;9.20;;;11.90;82.30;;;;;;5039429;28;20116;-65
2023/12/17 07:10:20;;;;;;;16.35;10.15;;;11.90;82.30;;;;;;5053543;28;20429;-65
2023/12/17 07:12:47;;;;;;;15.25;9.32;;;11.90;82.20;;;;;;5052218;28;20152;-65
2023/12/17 07:15:13;;;;;;;14.57;8.90;;;11.90;82.10;;;;;;5055810;28;20024;-65
2023/12/17 07:17:38;;;;;;;15.32;9.30;;;11.90;82.10;;;;;;5055685;28;20025;-65
2023/12/17 07:20:05;;;;;;;15.38;9.27;;;11.90;82.10;;;;;;5054256;28;20119;-65
2023/12/17 07:22:31;;;;;;;17.58;9.50;;;11.90;82.10;;;;;;5052149;28;20052;-65
2023/12/17 07:24:57;;;;;;;18.15;10.50;;;11.90;82.10;;;;;;5037441;28;20063;-65
2023/12/17 07:27:22;;;;;;;16.45;9.70;;;11.90;82.10;;;;;;5054382;28;20033;-65
2023/12/17 07:29:48;;;;;;;16.83;9.68;;;11.90;82.10;;;;;;5057213;28;20032;-65
2023/12/17 07:32:14;;;;;;;17.13;9.90;;;11.90;82.10;;;;;;5051777;28;20479;-65
2023/12/17 07:34:40;;;;;;;17.35;10.35;;;11.90;82.00;;;;;;5058469;28;20017;-65
2023/12/17 07:37:06;;;;;;;17.73;9.88;;;11.90;82.00;;;;;;5039480;28;20024;-65
2023/12/17 07:39:32;;;;;;;18.77;9.93;;;11.80;81.90;;;;;;5056982;28;20052;-65
2023/12/17 07:41:58;;;;;;;20.90;11.38;;;11.80;81.90;;;;;;5055798;28;20025;-65
2023/12/17 07:44:26;;;;;;;20.55;11.02;;;11.80;81.90;;;;;;5054511;28;20054;-65
2023/12/17 07:46:53;;;;;;;20.40;12.05;;;11.80;81.90;;;;;;5054555;28;20291;-68
2023/12/17 07:49:19;;;;;;;20.45;11.52;;;11.90;81.90;;;;;;5062907;28;20030;-69
2023/12/17 07:51:45;;;;;;;18.73;12.10;;;11.90;81.90;;;;;;5057804;28;20025;-69
2023/12/17 07:54:10;;;;;;;20.60;11.57;;;11.90;81.90;;;;;;5054352;28;20021;-67
2023/12/17 07:56:36;;;;;;;21.98;12.20;;;11.90;81.90;;;;;;5052632;28;20029;-67
2023/12/17 07:59:02;;;;;;;23.95;12.52;;;11.90;81.90;;;;;;5038584;28;20034;-67
2023/12/17 08:01:29;;;;;;;26.02;14.77;;;11.90;81.90;;;;;;5054752;28;20052;-67
2023/12/17 08:03:55;;;;;;;25.80;14.35;;;11.90;81.90;;;;;;5054953;28;20112;-67
2023/12/17 08:06:21;;;;;;;25.55;14.63;;;11.90;81.90;;;;;;5036333;28;20483;-67
2023/12/17 08:08:47;;;;;;;24.80;14.82;;;11.90;82.00;;;;;;5053841;28;20021;-67
2023/12/17 08:11:13;;;;;;;24.75;16.23;;;11.90;82.00;;;;;;5053569;28;20764;-67
2023/12/17 08:13:39;;;;;;;26.65;16.13;;;11.90;82.00;;;;;;5047779;28;20103;-67
2023/12/17 08:16:05;;;;;;;26.52;15.25;;;11.90;82.10;;;;;;5052627;28;20021;-69
2023/12/17 08:18:31;;;;;;;29.92;15.93;;;11.90;82.00;;;;;;5047571;28;20444;-68
2023/12/17 08:20:57;;;;;;;27.02;15.38;;;11.90;81.90;;;;;;5047397;28;20043;-65
2023/12/17 08:23:25;;;;;;;26.48;15.23;;;11.90;81.80;;;;;;5047693;28;20024;-66
2023/12/17 08:25:52;;;;;;;26.85;15.23;;;11.90;81.80;;;;;;5050518;28;20036;-65
2023/12/17 08:28:19;;;;;;;25.35;15.38;;;11.80;81.70;;;;;;5051779;28;20020;-65
2023/12/17 08:30:45;;;;;;;27.60;14.35;;;11.80;81.70;;;;;;5054167;28;20147;-65
2023/12/17 08:33:11;;;;;;;23.42;14.65;;;11.80;81.70;;;;;;5048300;28;20515;-65
2023/12/17 08:35:37;;;;;;;25.13;14.07;;;11.80;81.70;;;;;;5051818;28;20021;-63
2023/12/17 08:38:05;;;;;;;24.00;14.50;;;11.80;81.60;;;;;;5051395;28;20021;-64
2023/12/17 08:40:39;;;;;;;21.20;12.90;;;11.80;81.50;;;;;;5051867;28;20056;-63
2023/12/17 08:43:08;;;;;;;27.10;15.45;;;11.80;81.50;;;;;;5047784;28;20034;-64
2023/12/17 08:45:34;;;;;;;26.00;14.50;;;11.80;81.50;;;;;;5046749;28;20029;-67
2023/12/17 08:48:00;;;;;;;22.73;13.30;;;11.80;81.40;;;;;;5051182;28;20033;-68
2023/12/17 08:50:26;;;;;;;22.90;13.23;;;11.80;81.30;;;;;;5029820;28;20053;-68
2023/12/17 08:52:52;;;;;;;22.67;14.38;;;11.80;81.20;;;;;;5050920;28;20053;-68
2023/12/17 08:55:19;;;;;;;23.48;13.68;;;11.80;81.00;;;;;;5052239;28;20116;-68
2023/12/17 08:57:46;;;;;;;22.83;13.18;;;11.80;81.10;;;;;;5053459;28;20044;-67
2023/12/17 09:00:13;;;;;;;25.02;14.65;;;11.80;81.00;;;;;;5051938;28;20040;-66
2023/12/17 09:02:39;;;;;;;19.98;12.65;;;11.80;81.00;;;;;;5050420;28;20040;-67
2023/12/17 09:05:05;;;;;;;19.40;11.98;;;11.80;80.90;;;;;;5045578;28;20029;-68
2023/12/17 09:07:31;;;;;;;22.00;12.10;;;11.80;80.80;;;;;;5046057;28;20033;-67
2023/12/17 09:09:57;;;;;;;22.38;12.90;;;11.80;80.80;;;;;;5047863;28;20047;-67
2023/12/17 09:12:23;;;;;;;22.58;13.32;;;11.80;80.90;;;;;;5048025;28;20033;-67
2023/12/17 09:14:49;;;;;;;20.92;12.68;;;11.80;80.90;;;;;;5050068;28;20025;-66
2023/12/17 09:17:15;;;;;;;21.83;12.52;;;11.80;80.80;;;;;;5055090;28;20029;-68
2023/12/17 09:19:40;;;;;;;21.13;11.98;;;11.80;80.80;;;;;;5053650;28;20025;-67
2023/12/17 09:22:07;;;;;;;18.75;10.90;;;11.80;80.70;;;;;;5050931;28;20063;-67
2023/12/17 09:24:34;;;;;;;18.42;10.07;;;11.80;80.70;;;;;;5050027;28;20056;-66
2023/12/17 09:27:00;;;;;;;19.63;12.35;;;11.80;80.70;;;;;;5053678;28;20029;-66
2023/12/17 09:29:26;;;;;;;18.80;11.50;;;11.80;80.70;;;;;;5048262;28;20052;-67
2023/12/17 09:31:52;;;;;;;19.13;11.13;;;11.80;80.60;;;;;;5047671;28;20077;-67
2023/12/17 09:34:18;;;;;;;18.85;11.50;;;11.80;80.60;;;;;;5031611;28;20091;-67
2023/12/17 09:36:44;;;;;;;18.70;11.13;;;11.80;80.50;;;;;;5051457;28;20040;-67
2023/12/17 09:39:09;;;;;;;17.25;10.93;;;11.80;80.50;;;;;;5051629;28;20024;-67
2023/12/17 09:41:36;;;;;;;19.15;11.80;;;11.70;80.50;;;;;;5034312;28;20112;-67
2023/12/17 09:44:04;;;;;;;17.65;10.18;;;11.80;80.60;;;;;;5051246;28;20025;-67
2023/12/17 09:46:30;;;;;;;16.00;8.85;;;11.70;80.60;;;;;;5050763;28;20028;-67
2023/12/17 09:48:56;;;;;;;14.50;8.45;;;11.70;80.50;;;;;;5053430;28;20016;-66
2023/12/17 09:51:24;;;;;;;14.68;9.27;;;11.70;80.50;;;;;;5046822;28;20449;-67
2023/12/17 09:53:51;;;;;;;15.15;8.55;;;11.70;80.40;;;;;;5050518;28;20095;-66
2023/12/17 09:56:17;;;;;;;15.68;9.00;;;11.80;80.40;;;;;;5046658;28;20028;-69
2023/12/17 09:58:43;;;;;;;15.63;8.50;;;11.70;80.40;;;;;;5046363;28;20037;-67
2023/12/17 10:01:08;;;;;;;16.33;9.90;;;11.70;80.40;;;;;;5049548;28;20033;-66
2023/12/17 10:03:35;;;;;;;13.93;9.00;;;11.80;80.50;;;;;;5054099;28;20089;-66
2023/12/17 10:06:02;;;;;;;15.40;8.55;;;11.80;80.50;;;;;;5047308;28;20113;-66
2023/12/17 10:08:28;;;;;;;15.70;8.68;;;11.80;80.40;;;;;;5050886;28;20120;-67
2023/12/17 10:10:54;;;;;;;17.17;10.25;;;11.80;80.40;;;;;;5047689;28;20111;-66
2023/12/17 10:13:21;;;;;;;14.45;8.82;;;11.80;80.40;;;;;;5066845;28;20029;-67
2023/12/17 10:15:48;;;;;;;15.93;8.98;;;11.80;80.40;;;;;;5055823;28;20025;-66
2023/12/17 10:18:16;;;;;;;15.45;9.05;;;11.80;80.40;;;;;;5054734;28;20052;-66
2023/12/17 10:20:43;;;;;;;13.95;8.60;;;11.80;80.30;;;;;;5053548;28;20045;-67
2023/12/17 10:23:08;;;;;;;14.02;7.93;;;11.80;80.40;;;;;;5054825;28;20028;-66
2023/12/17 10:25:35;;;;;;;16.73;8.73;;;11.80;80.30;;;;;;5054569;28;20039;-66
2023/12/17 10:28:01;;;;;;;14.65;8.40;;;11.80;80.40;;;;;;5055166;28;20029;-67
2023/12/17 10:30:32;;;;;;;14.45;8.20;;;11.80;80.40;;;;;;5056879;28;20032;-66
2023/12/17 10:32:59;;;;;;;15.07;8.93;;;11.80;80.40;;;;;;5052830;28;20047;-66
2023/12/17 10:35:26;;;;;;;13.95;7.72;;;11.80;80.40;;;;;;5055791;28;20052;-66
2023/12/17 10:37:56;;;;;;;14.13;7.65;;;11.80;80.40;;;;;;5057134;28;20104;-66
2023/12/17 10:40:23;;;;;;;14.25;8.45;;;11.80;80.30;;;;;;5057444;28;20033;-66
2023/12/17 10:42:49;;;;;;;15.52;9.00;;;11.70;80.30;;;;;;5055109;28;20111;-66
2023/12/17 10:45:19;;;;;;;13.80;8.02;;;11.70;80.40;;;;;;5058517;28;20024;-66
2023/12/17 10:47:50;;;;;;;12.88;7.68;;;11.70;80.40;;;;;;5055611;28;20060;-66
2023/12/17 10:50:17;;;;;;;13.38;8.00;;;11.70;80.50;;;;;;5056620;28;20028;-66
2023/12/17 10:52:45;;;;;;;13.43;7.50;;;11.70;80.50;;;;;;5055005;28;20044;-65
2023/12/17 10:55:11;;;;;;;12.35;7.32;;;11.70;80.40;;;;;;5057283;28;20434;-66
2023/12/17 10:57:40;;;;;;;11.73;6.60;;;11.70;80.40;;;;;;5055203;28;20029;-66
2023/12/17 11:00:09;;;;;;;11.77;6.78;;;11.70;80.30;;;;;;5048988;28;20487;-66
2023/12/17 11:02:34;;;;;;;11.63;6.68;;;11.60;80.20;;;;;;5051694;28;20029;-66
2023/12/17 11:05:00;;;;;;;11.70;6.68;;;11.60;80.20;;;;;;5049221;28;20075;-68
2023/12/17 11:07:26;;;;;;;12.02;6.68;;;11.60;80.10;;;;;;5050001;28;20678;-66
2023/12/17 11:09:52;;;;;;;12.65;7.32;;;11.70;80.10;;;;;;5054635;28;20029;-66
2023/12/17 11:12:18;;;;;;;13.13;7.80;;;11.60;79.80;;;;;;5053291;28;20033;-67
2023/12/17 11:14:45;;;;;;;12.70;8.30;;;11.60;79.80;;;;;;5033257;28;20021;-67
2023/12/17 11:17:12;;;;;;;12.75;7.15;;;11.50;79.80;;;;;;5053507;28;20460;-66
2023/12/17 11:19:54;;;;;;;13.02;8.38;;;11.60;79.80;;;;;;5052067;28;20185;-66
2023/12/17 11:22:22;;;;;;;11.73;6.75;;;11.60;79.70;;;;;;5053093;28;20021;-66
2023/12/17 11:24:48;;;;;;;13.10;8.10;;;11.50;79.80;;;;;;5050659;28;20407;-67
2023/12/17 11:27:16;;;;;;;14.02;8.43;;;11.60;79.80;;;;;;5055935;28;20373;-66
2023/12/17 11:29:41;;;;;;;15.65;8.38;;;11.60;79.80;;;;;;5055004;28;20067;-66
2023/12/17 11:32:08;;;;;;;13.20;7.93;;;11.50;79.80;;;;;;5052487;28;20438;-66
2023/12/17 11:34:37;;;;;;;14.93;9.20;;;11.50;79.70;;;;;;5051518;28;20040;-66
2023/12/17 11:37:03;;;;;;;15.48;9.35;;;11.60;79.80;;;;;;5051011;28;20377;-67
2023/12/17 11:39:30;;;;;;;15.18;9.27;;;11.60;79.70;;;;;;5051925;28;20033;-66
2023/12/17 11:41:56;;;;;;;15.52;9.80;;;11.60;79.60;;;;;;5054443;28;20036;-65
2023/12/17 11:44:23;;;;;;;16.50;10.13;;;11.60;79.60;;;;;;5053213;28;20033;-66
2023/12/17 11:46:49;;;;;;;17.50;10.35;;;11.60;79.50;;;;;;5053086;28;20033;-67
2023/12/17 11:49:25;;;;;;;17.70;11.60;;;11.60;79.50;;;;;;5056111;28;20104;-64
2023/12/17 11:51:52;;;;;;;17.50;10.77;;;11.60;80.00;;;;;;5054292;28;20027;-65
2023/12/17 11:54:19;;;;;;;18.40;11.30;;;11.70;79.30;;;;;;5054421;28;20041;-65
2023/12/17 11:56:48;;;;;;;18.02;10.70;;;11.70;79.20;;;;;;5052882;28;20025;-65
2023/12/17 11:59:15;;;;;;;17.17;10.20;;;11.70;79.10;;;;;;5052995;28;20460;-65
2023/12/17 12:01:42;;;;;;;19.20;11.23;;;11.70;79.10;;;;;;5053319;28;20060;-64
2023/12/17 12:04:08;;;;;;;17.30;10.90;;;11.80;79.00;;;;;;5053478;28;20021;-65
2023/12/17 12:06:34;;;;;;;21.58;12.13;;;11.80;78.90;;;;;;5052432;28;20508;-65
2023/12/17 12:09:00;;;;;;;16.95;10.23;;;11.90;78.80;;;;;;5053321;28;20032;-65
2023/12/17 12:11:32;;;;;;;17.48;11.18;;;11.90;78.70;;;;;;5051852;28;20021;-65
2023/12/17 12:13:58;;;;;;;18.33;10.73;;;11.90;78.60;;;;;;5054147;28;20021;-65
2023/12/17 12:16:24;;;;;;;18.63;11.68;;;11.90;78.50;;;;;;5050874;28;20432;-64
2023/12/17 12:19:02;;;;;;;18.42;11.52;;;12.00;78.50;;;;;;5052171;28;20025;-64
2023/12/17 12:21:29;;;;;;;18.77;11.50;;;12.00;78.30;;;;;;5053638;28;20037;-64
2023/12/17 12:23:56;;;;;;;21.15;11.45;;;11.90;78.20;;;;;;5052438;28;20400;-65
2023/12/17 12:26:24;;;;;;;20.13;12.73;;;12.00;78.20;;;;;;5056250;28;20043;-65
2023/12/17 12:29:06;;;;;;;21.30;11.77;;;11.90;78.00;;;;;;5053785;28;20017;-65
2023/12/17 12:31:32;;;;;;;18.05;11.00;;;11.90;77.90;;;;;;5053953;28;20036;-65